METAR AND TAF INFORMATION
METAR FOR EDLP
ADDS - METARS form results

(1047 UTC 23 February 2018)
Data provider http://aviationweather.gov/adds/metars/
 
METAR text: EDLP 231020Z 10013KT CAVOK M01/M09 Q1023
Conditions at: EDLP (PADERBORN/LIPPST, DE) observed 1020 UTC 23 February 2018
Temperature: -1.0°C (30°F)
Dewpoint: -9.0°C (16°F) [RH = 55%]
Pressure (altimeter): 30.21 inches Hg (1023.0 mb)
Winds: from the E (100 degrees) at 15 MPH (13 knots; 6.8 m/s)
Visibility: 6 or more miles (10+ km)
Ceiling: ceiling and visibility are OK
Clouds: unknown
Weather: no significant weather observed at this time

METAR text: EDLP 230950Z 08014KT 9999 FEW034 M01/M08 Q1023
Conditions at: EDLP (PADERBORN/LIPPST, DE) observed 0950 UTC 23 February 2018
Temperature: -1.0°C (30°F)
Dewpoint: -8.0°C (18°F) [RH = 59%]
Pressure (altimeter): 30.21 inches Hg (1023.0 mb)
Winds: from the E (80 degrees) at 16 MPH (14 knots; 7.3 m/s)
Visibility: 6 or more miles (10+ km)
Ceiling: at least 12,000 feet AGL
Clouds: few clouds at 3400 feet AGL
Weather: no significant weather observed at this time

Forecast for: EDLP (PADERBORN/LIPPST, DE)
Text: TAF EDLP 230500Z 2306/2406 08005KT 9999 FEW035
Forecast period: 0600 to 0700 UTC 23 February 2018
Forecast type: FROM: standard forecast or significant change
Winds: from the E (80 degrees) at 6 MPH (5 knots; 2.6 m/s)
Visibility: 6 or more miles (10+ km)
Clouds: few clouds at 3500 feet AGL
Weather: no significant weather forecast for this period
Text: BECMG 2307/2310 09010KT
Forecast period: 0700 UTC 23 February 2018 to 0600 UTC 24 February 2018
Forecast type: BECOMING: Conditions expected to become as follows by 1000 UTC 23 February 2018
Winds: from the E (90 degrees) at 12 MPH (10 knots; 5.2 m/s)
Visibility: 6 or more miles (10+ km)
Clouds: few clouds at 3500 feet AGL
Weather: no significant weather forecast for this period
Text: PROB30
Forecast period: 1100 to 1700 UTC 23 February 2018
Forecast type: TEMPORARY: The following changes expected for less than half the time period
Winds: from the E (90 degrees) at 17 MPH (15 knots; 7.8 m/s)
gusting to 29 MPH (25 knots; 13.0 m/s)
Weather: no significant weather forecast for this period

 AIRPORT MAP

 RUNWAY INFORMATION
Runway 06 Runway length 7152 ft Runway width 148 ft
Runway elevation 699 ft Runway displaced threshold 0 ft Runway heading 57
Runway 24 Runway length 7152 ft Runway width 148 ft
Runway elevation 674 ft Runway displaced threshold 0 ft Runway heading 237

 AIRPORT FREQUENCIES
Type ATIS Name ATIS Frequency 125.725 MHZ
Type GND Name GND Frequency 121.925 MHZ
Type INFO Name LANGEN INF Frequency 129.875 MHZ
Type OPS Name DISPATCH Frequency 130.425 MHZ
Type RDR Name LANGEN RAD Frequency 125.225 MHZ
Type TWR Name TWR Frequency 133.375 MHZ

 AIRPORT NEAR NAVIGATION AIDS
Type NDB-DME Name Paderborn/Lippstadt Frequency 354 KHZ



Powered by Virtual Airlines Manager [v2.6.2]